Time;durP1;ratioP1;P1;durP2;ratioP2;P2;SDS_P1;SDS_P2;PMS_P1;PMS_P2;Temp;Humidity;BMP_temperature;BMP_pressure;BME280_temperature;BME280_humidity;BME280_pressure;Samples;Min_cycle;Max_cycle;Signal;HPM_P1;HPM_P2
2023/01/30 00:02:19;;;;;;;23.67;12.18;;;;;;;2.10;100.00;100424.28;6311595;28;20544;-89
2023/01/30 00:05:21;;;;;;;25.15;12.05;;;;;;;2.05;100.00;100413.44;6300146;28;20036;-89
2023/01/30 00:08:23;;;;;;;24.48;12.80;;;;;;;1.89;100.00;100395.47;6285336;28;20218;-89
2023/01/30 00:11:27;;;;;;;25.58;13.02;;;;;;;1.87;100.00;100392.97;6309948;28;20048;-89
2023/01/30 00:14:29;;;;;;;23.75;12.73;;;;;;;1.98;100.00;100391.66;6298133;28;20669;-89
2023/01/30 00:17:31;;;;;;;23.50;12.63;;;;;;;1.97;100.00;100392.56;6306869;28;20052;-89
2023/01/30 00:20:33;;;;;;;26.30;13.13;;;;;;;2.07;100.00;100392.06;6310615;28;20682;-89
2023/01/30 00:23:35;;;;;;;25.42;12.90;;;;;;;2.12;100.00;100404.63;6310556;28;20043;-89
2023/01/30 00:26:37;;;;;;;26.10;12.48;;;;;;;2.11;100.00;100395.28;6309103;28;20043;-89
2023/01/30 00:29:39;;;;;;;27.42;12.77;;;;;;;2.19;100.00;100407.69;6310613;28;20059;-88
2023/01/30 00:32:41;;;;;;;31.35;13.82;;;;;;;2.30;100.00;100408.84;6306947;28;20048;-88
2023/01/30 00:35:44;;;;;;;27.50;13.18;;;;;;;2.33;100.00;100403.59;6310838;28;20533;-89
2023/01/30 00:38:47;;;;;;;25.90;12.57;;;;;;;2.35;100.00;100432.47;6305558;28;20039;-89
2023/01/30 00:48:32;;;;;;;26.00;12.50;;;;;;;2.47;100.00;100377.41;6305928;28;20220;-89
2023/01/30 00:51:35;;;;;;;29.75;13.63;;;;;;;2.46;100.00;100390.25;6304717;28;20124;-89
2023/01/30 00:54:36;;;;;;;30.40;14.52;;;;;;;2.43;100.00;100375.09;6305411;28;20045;-89
2023/01/30 00:57:38;;;;;;;29.15;13.32;;;;;;;2.48;100.00;100362.91;6307326;28;20130;-89
2023/01/30 01:00:40;;;;;;;28.33;13.90;;;;;;;2.49;100.00;100354.38;6308238;28;20500;-89
2023/01/30 01:03:42;;;;;;;27.00;14.23;;;;;;;2.51;100.00;100361.06;6322533;28;20450;-89
2023/01/30 01:06:44;;;;;;;28.25;12.95;;;;;;;2.49;100.00;100349.25;6305221;28;20043;-89
2023/01/30 01:09:46;;;;;;;26.85;14.00;;;;;;;2.42;100.00;100358.94;6307798;28;20044;-88
2023/01/30 01:12:49;;;;;;;35.17;14.50;;;;;;;2.43;100.00;100352.91;6309289;28;20409;-90
2023/01/30 01:15:50;;;;;;;29.25;14.93;;;;;;;2.47;100.00;100351.06;6308712;28;20670;-89
2023/01/30 01:18:52;;;;;;;27.55;14.05;;;;;;;2.48;100.00;100345.03;6309376;28;20044;-89
2023/01/30 01:21:54;;;;;;;29.17;14.23;;;;;;;2.45;100.00;100333.22;6309194;28;20409;-89
2023/01/30 01:24:56;;;;;;;28.80;13.43;;;;;;;2.50;100.00;100328.72;6308146;28;20607;-89
2023/01/30 01:27:57;;;;;;;30.92;14.18;;;;;;;2.47;100.00;100300.78;6301975;28;20040;-89
2023/01/30 01:30:59;;;;;;;27.38;14.25;;;;;;;2.46;100.00;100293.19;6299104;28;20493;-89
2023/01/30 01:34:01;;;;;;;27.48;13.30;;;;;;;2.41;100.00;100282.38;6308289;28;20040;-89
2023/01/30 01:37:03;;;;;;;29.05;14.65;;;;;;;2.34;100.00;100264.81;6303067;28;21263;-89
2023/01/30 01:43:31;;;;;;;23.63;12.02;;;;;;;2.24;100.00;100242.34;6291185;28;20470;-89
2023/01/30 01:46:58;;;;;;;25.95;12.85;;;;;;;2.24;100.00;100235.50;6295414;28;20155;-89
2023/01/30 01:50:01;;;;;;;22.58;11.10;;;;;;;2.18;100.00;100240.91;6286168;28;20144;-89
2023/01/30 01:53:04;;;;;;;21.58;11.20;;;;;;;2.26;100.00;100236.28;6287310;28;20071;-89
2023/01/30 01:56:06;;;;;;;19.88;10.50;;;;;;;2.35;100.00;100229.88;6306562;28;20678;-89
2023/01/30 01:59:20;;;;;;;23.10;11.40;;;;;;;2.38;100.00;100234.81;6306612;28;20043;-89
2023/01/30 02:02:22;;;;;;;21.88;10.05;;;;;;;2.46;100.00;100248.06;6302300;28;20048;-89
2023/01/30 02:05:30;;;;;;;25.23;11.25;;;;;;;2.50;100.00;100238.50;6297547;28;20044;-89
2023/01/30 02:08:36;;;;;;;22.95;10.90;;;;;;;2.56;100.00;100222.88;6291715;28;20071;-89
2023/01/30 02:11:42;;;;;;;26.00;11.70;;;;;;;2.66;100.00;100226.59;6312626;28;20075;-89
2023/01/30 02:14:44;;;;;;;23.48;11.20;;;;;;;2.69;100.00;100223.06;6294388;28;20143;-89
2023/01/30 02:17:47;;;;;;;22.27;12.13;;;;;;;2.69;100.00;100218.78;6310398;28;20523;-89
2023/01/30 02:21:23;;;;;;;28.20;12.55;;;;;;;2.68;100.00;100214.56;6309801;28;20133;-89
2023/01/30 02:24:33;;;;;;;24.65;12.20;;;;;;;2.72;100.00;100205.84;6309475;28;20693;-89
2023/01/30 02:28:15;;;;;;;27.98;13.32;;;;;;;2.84;100.00;100211.25;6295156;28;20768;-89
2023/01/30 02:31:19;;;;;;;22.20;11.68;;;;;;;2.82;100.00;100185.75;6310976;28;20493;-89
2023/01/30 02:34:46;;;;;;;32.78;13.07;;;;;;;2.78;100.00;100197.88;6312332;28;20040;-89
2023/01/30 02:38:17;;;;;;;28.42;13.90;;;;;;;2.87;100.00;100185.50;6311712;28;20048;-89
2023/01/30 02:41:27;;;;;;;;;;;;;;;2.95;100.00;100168.84;6295573;28;20036;-89
2023/01/30 02:44:34;;;;;;;27.50;13.18;;;;;;;2.99;100.00;100151.63;6303612;28;19935;-88
2023/01/30 02:47:50;;;;;;;29.52;14.98;;;;;;;3.02;100.00;100143.78;6303692;28;20040;-89
2023/01/30 02:50:58;;;;;;;28.33;13.02;;;;;;;3.09;100.00;100142.56;6301932;28;20078;-89
2023/01/30 02:54:00;;;;;;;27.23;14.88;;;;;;;3.12;100.00;100136.44;6304068;28;20045;-89
2023/01/30 02:57:02;;;;;;;27.40;14.07;;;;;;;3.14;100.00;100124.41;6310248;28;20048;-89
2023/01/30 03:00:05;;;;;;;29.38;13.88;;;;;;;3.19;100.00;100125.78;6303567;28;20048;-89
2023/01/30 03:03:23;;;;;;;33.40;13.98;;;;;;;3.26;100.00;100115.25;6299763;28;20044;-89
2023/01/30 03:06:56;;;;;;;28.05;14.40;;;;;;;3.25;100.00;100122.06;6304702;28;20044;-88
2023/01/30 03:10:23;;;;;;;29.33;13.57;;;;;;;3.28;100.00;100109.13;6304290;28;20068;-89
2023/01/30 03:13:55;;;;;;;28.63;13.27;;;;;;;3.30;100.00;100107.28;6309527;28;20044;-88
2023/01/30 03:16:59;;;;;;;31.20;14.75;;;;;;;3.27;100.00;100114.31;6308307;28;20536;-89
2023/01/30 03:20:01;;;;;;;28.83;14.23;;;;;;;3.33;100.00;100117.38;6304087;28;20072;-89
2023/01/30 03:23:03;;;;;;;29.65;13.95;;;;;;;3.36;100.00;100098.47;6309991;28;20106;-89
2023/01/30 03:26:12;;;;;;;31.30;14.30;;;;;;;3.35;100.00;100086.56;6300555;28;20067;-90
2023/01/30 03:29:14;;;;;;;29.05;14.75;;;;;;;3.24;100.00;100099.97;6295974;28;20653;-90
2023/01/30 03:32:16;;;;;;;28.52;13.10;;;;;;;3.19;100.00;100110.44;6286189;28;20054;-90
2023/01/30 03:35:18;;;;;;;30.85;14.52;;;;;;;3.16;100.00;100094.47;6293262;28;20120;-91
2023/01/30 03:38:20;;;;;;;24.33;12.95;;;;;;;3.15;100.00;100082.56;6307204;28;20120;-90
2023/01/30 03:41:23;;;;;;;24.88;11.65;;;;;;;3.18;100.00;100093.47;6299426;28;20040;-90
2023/01/30 03:44:25;;;;;;;26.60;13.15;;;;;;;3.22;100.00;100084.69;6304214;28;20520;-91
2023/01/30 03:47:27;;;;;;;24.70;11.50;;;;;;;3.30;100.00;100070.66;6284077;28;20203;-89
2023/01/30 03:50:29;;;;;;;26.20;11.57;;;;;;;3.28;100.00;100070.78;6294764;28;20044;-91
2023/01/30 03:53:31;;;;;;;21.48;12.00;;;;;;;3.31;100.00;100088.50;6293483;28;20040;-91
2023/01/30 03:56:33;;;;;;;26.88;12.57;;;;;;;3.40;100.00;100082.03;6298390;28;20048;-91
2023/01/30 03:59:35;;;;;;;23.90;12.98;;;;;;;3.44;100.00;100055.38;6306963;28;20040;-92
2023/01/30 04:02:41;;;;;;;27.67;13.60;;;;;;;3.45;100.00;100060.41;6293045;28;20052;-91
2023/01/30 04:05:46;;;;;;;27.52;13.63;;;;;;;3.40;100.00;100052.16;6312386;28;20138;-93
2023/01/30 04:08:51;;;;;;;22.45;12.23;;;;;;;3.43;100.00;100057.09;6304196;28;20052;-94
2023/01/30 04:12:06;;;;;;;24.70;12.00;;;;;;;3.52;100.00;100049.81;6304525;28;20056;-94
2023/01/30 04:15:13;;;;;;;22.45;11.43;;;;;;;3.49;100.00;100044.88;6310783;28;20165;-94
2023/01/30 04:18:26;;;;;;;22.05;11.13;;;;;;;3.51;100.00;100038.75;6310355;28;20508;-93
2023/01/30 04:21:36;;;;;;;17.58;9.48;;;;;;;3.49;100.00;100039.75;6309842;28;20040;-92
2023/01/30 04:24:38;;;;;;;16.80;8.45;;;;;;;3.49;100.00;100044.88;6295145;28;20067;-92
2023/01/30 04:27:40;;;;;;;17.48;9.50;;;;;;;3.53;100.00;100034.38;6311219;28;20040;-92
2023/01/30 04:30:51;;;;;;;15.77;9.32;;;;;;;3.52;100.00;100032.72;6309182;28;20040;-92
2023/01/30 04:34:19;;;;;;;17.60;8.87;;;;;;;3.43;100.00;100028.97;6205195;28;20058;-91
2023/01/30 04:37:21;;;;;;;15.60;8.30;;;;;;;3.44;100.00;100029.78;6232178;28;20038;-90
2023/01/30 04:40:23;;;;;;;14.10;7.72;;;;;;;3.52;100.00;100021.66;6193856;28;20053;-89
2023/01/30 04:43:27;;;;;;;16.48;8.35;;;;;;;3.52;100.00;100065.97;6226350;28;20046;-91
2023/01/30 04:46:47;;;;;;;15.07;7.68;;;;;;;3.55;100.00;100024.03;6208874;28;20514;-87
2023/01/30 04:49:50;;;;;;;12.68;7.65;;;;;;;3.61;100.00;100029.63;6209552;28;20056;-88
2023/01/30 04:52:51;;;;;;;15.15;7.93;;;;;;;3.67;100.00;100018.22;6212724;28;20136;-87
2023/01/30 04:55:53;;;;;;;15.77;8.60;;;;;;;3.70;100.00;100014.66;6200092;28;20058;-88
2023/01/30 04:58:55;;;;;;;13.57;7.82;;;;;;;3.68;100.00;100012.19;6208692;28;20084;-87
2023/01/30 05:01:57;;;;;;;11.48;6.60;;;;;;;3.67;100.00;100013.09;6198753;28;20636;-86
2023/01/30 05:04:59;;;;;;;14.00;7.80;;;;;;;3.61;100.00;100009.16;6217035;28;20062;-86
2023/01/30 05:08:00;;;;;;;11.40;7.45;;;;;;;3.66;100.00;100017.38;6214046;28;20045;-86
2023/01/30 05:11:02;;;;;;;10.98;6.47;;;;;;;3.77;100.00;100003.94;6265099;28;20055;-86
2023/01/30 05:14:04;;;;;;;12.13;6.53;;;;;;;3.79;100.00;100001.31;6298216;28;20048;-86
2023/01/30 05:17:06;;;;;;;11.73;6.95;;;;;;;3.76;100.00;100004.88;6308517;28;20521;-86
2023/01/30 05:20:09;;;;;;;12.68;6.95;;;;;;;3.76;100.00;100006.63;6308150;28;20499;-85
2023/01/30 05:23:11;;;;;;;10.60;6.22;;;;;;;3.80;100.00;100000.38;6310889;28;20036;-85
2023/01/30 05:26:14;;;;;;;10.80;5.80;;;;;;;3.83;100.00;99997.66;6310807;28;20040;-85
2023/01/30 05:29:15;;;;;;;10.98;6.38;;;;;;;3.82;100.00;99998.56;6302225;28;20049;-85
2023/01/30 05:32:18;;;;;;;13.40;6.70;;;;;;;3.83;100.00;100016.41;6307831;28;20043;-84
2023/01/30 05:35:20;;;;;;;12.05;6.47;;;;;;;3.83;100.00;100016.41;6309867;28;20040;-85
2023/01/30 05:38:23;;;;;;;10.25;5.50;;;;;;;3.81;100.00;100030.22;6303953;28;20047;-85
2023/01/30 05:41:25;;;;;;;10.52;5.53;;;;;;;3.84;100.00;100040.25;6310098;28;20044;-85
2023/01/30 05:44:27;;;;;;;11.73;5.60;;;;;;;3.95;100.00;100054.97;6311459;28;20028;-89
2023/01/30 05:47:29;;;;;;;10.02;5.70;;;;;;;3.89;100.00;100064.66;6309960;28;20726;-85
2023/01/30 05:50:31;;;;;;;8.77;5.57;;;;;;;3.94;100.00;100038.81;6302982;28;20109;-89
2023/01/30 05:53:33;;;;;;;9.25;5.50;;;;;;;3.97;100.00;100060.84;6305404;28;20040;-85
2023/01/30 05:56:35;;;;;;;9.30;5.30;;;;;;;3.97;100.00;100046.28;6304975;28;20044;-86
2023/01/30 05:59:37;;;;;;;8.57;4.95;;;;;;;4.02;100.00;100057.09;6304869;28;20044;-86
2023/01/30 06:02:38;;;;;;;8.80;4.45;;;;;;;4.08;100.00;100040.56;6301297;28;20456;-86
2023/01/30 06:05:40;;;;;;;6.97;4.18;;;;;;;4.03;100.00;100016.97;6311967;28;20043;-86
2023/01/30 06:08:42;;;;;;;6.80;3.53;;;;;;;4.01;100.00;100011.09;6295791;28;20506;-86
2023/01/30 06:11:44;;;;;;;7.97;4.25;;;;;;;3.99;100.00;99997.56;6313796;28;20131;-86
2023/01/30 06:14:46;;;;;;;6.50;3.25;;;;;;;4.00;100.00;99996.63;6301516;28;20041;-86
2023/01/30 06:17:48;;;;;;;6.32;3.47;;;;;;;4.03;100.00;100012.66;6305363;28;20032;-86
2023/01/30 06:20:51;;;;;;;9.00;3.80;;;;;;;3.99;100.00;100000.94;6309527;28;20501;-86
2023/01/30 06:23:53;;;;;;;7.68;4.25;;;;;;;4.04;100.00;100010.91;6301618;28;20523;-87
2023/01/30 06:26:55;;;;;;;8.13;4.68;;;;;;;4.13;100.00;99999.31;6300488;28;20047;-87
2023/01/30 06:29:56;;;;;;;13.75;5.10;;;;;;;4.17;100.00;100011.00;6304090;28;20078;-87
2023/01/30 06:32:58;;;;;;;10.57;4.88;;;;;;;4.18;100.00;100017.78;6303861;28;20043;-87
2023/01/30 06:36:00;;;;;;;8.77;5.15;;;;;;;4.18;100.00;100010.09;6310107;28;20040;-88
2023/01/30 06:39:01;;;;;;;10.55;5.63;;;;;;;4.20;100.00;100028.72;6310283;28;20183;-89
2023/01/30 06:42:03;;;;;;;9.27;4.65;;;;;;;4.26;100.00;100028.38;6310464;28;20120;-88
2023/01/30 06:45:06;;;;;;;10.75;4.57;;;;;;;4.27;100.00;100038.53;6303775;28;20131;-89
2023/01/30 06:48:08;;;;;;;6.60;3.67;;;;;;;4.25;100.00;100045.50;6293432;28;20494;-92
2023/01/30 06:51:10;;;;;;;9.35;4.32;;;;;;;4.28;100.00;100044.47;6301297;28;20163;-90
2023/01/30 06:54:13;;;;;;;9.65;3.95;;;;;;;4.20;100.00;100037.25;6303902;28;20040;-90
2023/01/30 06:57:15;;;;;;;11.48;3.97;;;;;;;4.13;100.00;100030.03;6305586;28;20051;-89
2023/01/30 07:00:19;;;;;;;10.40;4.25;;;;;;;4.04;100.00;100021.97;6315023;28;20032;-90
2023/01/30 07:03:20;;;;;;;8.30;4.32;;;;;;;3.93;100.00;100032.03;6310803;28;20048;-89
2023/01/30 07:06:24;;;;;;;9.40;3.55;;;;;;;3.97;100.00;100032.69;6300718;28;20036;-90
2023/01/30 07:09:27;;;;;;;11.85;4.78;;;;;;;3.89;100.00;100038.25;6310940;28;21309;-90
2023/01/30 07:12:28;;;;;;;9.95;3.55;;;;;;;3.83;100.00;100039.44;6306966;28;20044;-89
2023/01/30 07:15:31;;;;;;;13.70;3.47;;;;;;;3.95;100.00;100039.63;6312820;28;20047;-91
2023/01/30 07:18:33;;;;;;;8.05;3.05;;;;;;;3.98;100.00;100032.59;6314348;28;20067;-91
2023/01/30 07:21:34;;;;;;;8.07;2.67;;;;;;;3.94;100.00;100023.44;6308594;28;20052;-91
2023/01/30 07:24:38;;;;;;;10.20;3.65;;;;;;;3.88;100.00;100023.81;6308274;28;20043;-92
2023/01/30 07:27:40;;;;;;;8.10;2.70;;;;;;;3.83;100.00;100030.94;6290052;28;20070;-92
2023/01/30 07:30:41;;;;;;;12.57;3.72;;;;;;;3.73;100.00;100032.41;6314037;28;20078;-92
2023/01/30 07:33:43;;;;;;;7.53;2.42;;;;;;;3.75;100.00;100033.97;6314528;28;20599;-90
2023/01/30 07:36:45;;;;;;;10.70;2.40;;;;;;;3.93;100.00;100026.13;6305791;28;20882;-92
2023/01/30 07:39:47;;;;;;;7.47;2.35;;;;;;;4.03;100.00;100032.31;6302520;28;20127;-92
2023/01/30 07:42:59;;;;;;;9.02;2.80;;;;;;;4.09;100.00;100019.13;6303987;28;20554;-91
2023/01/30 07:46:01;;;;;;;14.45;3.33;;;;;;;4.13;100.00;100019.78;6301632;28;20064;-92
2023/01/30 07:49:04;;;;;;;7.38;2.20;;;;;;;4.13;100.00;100030.03;6312236;28;20715;-92
2023/01/30 07:52:06;;;;;;;9.75;2.65;;;;;;;4.05;100.00;100017.66;6307230;28;20052;-92
2023/01/30 07:55:08;;;;;;;10.77;2.42;;;;;;;4.02;100.00;100013.56;6312456;28;20047;-92
2023/01/30 07:58:14;;;;;;;10.27;2.10;;;;;;;4.01;100.00;100008.53;6306631;28;20036;-93
2023/01/30 08:01:16;;;;;;;9.18;2.30;;;;;;;4.07;100.00;100009.00;6304229;28;20048;-93
2023/01/30 08:04:18;;;;;;;14.05;4.05;;;;;;;4.05;100.00;100010.84;6311347;28;20071;-93
2023/01/30 08:07:20;;;;;;;9.30;2.55;;;;;;;4.12;100.00;100008.69;6311082;28;20066;-93
2023/01/30 08:10:23;;;;;;;6.55;2.45;;;;;;;4.20;100.00;100008.22;6311228;28;20063;-93
2023/01/30 08:13:25;;;;;;;9.15;2.20;;;;;;;4.24;100.00;100018.22;6309192;28;20051;-92
2023/01/30 08:16:27;;;;;;;10.82;3.17;;;;;;;4.19;100.00;100007.41;6311720;28;20036;-92
2023/01/30 08:19:29;;;;;;;9.50;2.40;;;;;;;4.37;100.00;100015.72;6308337;28;20501;-93
2023/01/30 08:22:30;;;;;;;14.85;2.80;;;;;;;4.52;100.00;100029.31;6313999;28;20079;-93
2023/01/30 08:25:34;;;;;;;11.02;2.42;;;;;;;4.60;100.00;100041.69;6305439;28;20044;-93
2023/01/30 08:28:36;;;;;;;5.93;2.10;;;;;;;4.61;100.00;100040.75;6296873;28;20040;-93
2023/01/30 08:31:38;;;;;;;12.48;2.92;;;;;;;4.69;100.00;100036.78;6302679;28;20044;-93
2023/01/30 08:34:40;;;;;;;8.65;2.10;;;;;;;4.69;100.00;100023.16;6305948;28;20552;-93
2023/01/30 08:37:42;;;;;;;6.53;2.75;;;;;;;4.70;100.00;100027.38;6307057;28;20055;-93
2023/01/30 08:40:44;;;;;;;11.20;2.33;;;;;;;4.76;100.00;100037.25;6310012;28;20071;-93
2023/01/30 08:43:46;;;;;;;10.68;2.90;;;;;;;4.80;100.00;100038.69;6298478;28;20036;-93
2023/01/30 08:46:48;;;;;;;10.68;2.83;;;;;;;4.83;100.00;100035.13;6307345;28;20060;-93
2023/01/30 08:49:51;;;;;;;13.38;2.80;;;;;;;4.87;100.00;100034.84;6312578;28;20107;-92
2023/01/30 08:52:53;;;;;;;14.73;2.53;;;;;;;4.89;100.00;100045.78;6310343;28;20090;-92
2023/01/30 08:55:55;;;;;;;6.15;1.90;;;;;;;4.92;100.00;100039.69;6296467;28;20483;-93
2023/01/30 08:58:57;;;;;;;12.27;2.67;;;;;;;4.87;100.00;100039.13;6294880;28;20066;-93
2023/01/30 09:02:00;;;;;;;10.55;2.47;;;;;;;4.96;100.00;100036.78;6294877;28;20036;-92
2023/01/30 09:05:03;;;;;;;21.67;3.05;;;;;;;4.97;100.00;100043.59;6300550;28;20094;-92
2023/01/30 09:08:05;;;;;;;12.70;2.05;;;;;;;4.97;100.00;100041.03;6309587;28;20028;-92
2023/01/30 09:11:07;;;;;;;10.13;2.05;;;;;;;4.99;100.00;100040.91;6311017;28;20043;-92
2023/01/30 09:14:09;;;;;;;7.25;2.70;;;;;;;5.01;100.00;100039.06;6303524;28;20045;-93
2023/01/30 09:17:11;;;;;;;11.00;2.33;;;;;;;5.03;100.00;100051.81;6299681;28;20048;-91
2023/01/30 09:20:13;;;;;;;7.45;2.17;;;;;;;5.08;100.00;100042.91;6303290;28;20039;-92
2023/01/30 09:23:16;;;;;;;8.30;2.83;;;;;;;5.14;100.00;100034.81;6290731;28;20036;-93
2023/01/30 09:26:18;;;;;;;12.98;3.08;;;;;;;5.16;100.00;100048.34;6299006;28;20122;-92
2023/01/30 09:29:20;;;;;;;16.48;2.67;;;;;;;5.18;100.00;100056.78;6293317;28;20043;-91
2023/01/30 09:32:21;;;;;;;8.82;2.10;;;;;;;5.19;100.00;100062.72;6293869;28;20051;-91
2023/01/30 09:35:23;;;;;;;12.27;2.47;;;;;;;5.21;100.00;100060.06;6298288;28;20063;-91
2023/01/30 09:38:25;;;;;;;14.95;2.13;;;;;;;5.23;100.00;100068.50;6298757;28;20068;-92
2023/01/30 09:42:04;;;;;;;10.57;2.00;;;;;;;5.27;100.00;100064.81;6296245;28;20086;-91
2023/01/30 09:45:33;;;;;;;23.58;3.03;;;;;;;5.30;100.00;100041.53;6270002;28;20092;-92
2023/01/30 09:48:53;;;;;;;12.05;2.22;;;;;;;5.42;100.00;100052.75;6302313;28;20085;-91
2023/01/30 09:52:18;;;;;;;11.30;2.43;;;;;;;5.45;100.00;100070.50;6295057;28;20044;-91
2023/01/30 09:55:23;;;;;;;12.00;2.03;;;;;;;5.40;100.00;100051.09;6298127;28;20293;-91
2023/01/30 09:58:39;;;;;;;13.18;2.55;;;;;;;5.32;100.00;100040.50;6309425;28;20044;-91
2023/01/30 10:01:59;;;;;;;9.60;2.00;;;;;;;5.33;100.00;100052.41;6301384;28;20165;-92
2023/01/30 10:05:02;;;;;;;12.73;2.05;;;;;;;5.24;100.00;100058.16;6298092;28;20525;-92
2023/01/30 10:08:27;;;;;;;9.88;2.20;;;;;;;5.30;100.00;100050.03;6299805;28;20350;-91
2023/01/30 10:11:53;;;;;;;18.10;2.90;;;;;;;5.31;100.00;100061.13;6255877;28;20565;-90
2023/01/30 10:15:21;;;;;;;12.75;2.33;;;;;;;5.21;100.00;100055.75;6250069;28;20053;-90
2023/01/30 10:18:41;;;;;;;5.05;1.63;;;;;;;5.22;100.00;100042.03;6251761;28;20422;-92
2023/01/30 10:22:02;;;;;;;10.20;2.35;;;;;;;5.35;100.00;100073.66;6253954;28;20564;-91
2023/01/30 10:25:23;;;;;;;12.50;2.47;;;;;;;5.31;100.00;100048.28;6253864;28;20518;-90
2023/01/30 10:28:30;;;;;;;13.27;2.30;;;;;;;5.23;100.00;100061.63;6257504;28;20566;-91
2023/01/30 10:31:55;;;;;;;17.95;2.90;;;;;;;5.20;100.00;100049.00;6258223;28;20503;-89
2023/01/30 10:35:06;;;;;;;11.93;1.95;;;;;;;5.19;100.00;100031.94;6259167;28;20454;-91
2023/01/30 10:38:32;;;;;;;14.80;3.78;;;;;;;5.38;100.00;100047.78;6258474;28;20057;-90
2023/01/30 10:41:44;;;;;;;8.32;2.20;;;;;;;5.45;100.00;100043.09;6260095;28;20652;-90
2023/01/30 10:44:47;;;;;;;13.50;2.78;;;;;;;5.41;100.00;100015.97;6259619;28;20083;-90
2023/01/30 10:48:09;;;;;;;11.18;2.22;;;;;;;5.24;100.00;100005.97;6279931;28;20064;-90
2023/01/30 10:51:23;;;;;;;16.25;2.42;;;;;;;5.27;100.00;100010.94;6312884;28;20043;-92
2023/01/30 10:55:04;;;;;;;7.88;2.00;;;;;;;5.39;100.00;100010.97;6305341;28;20036;-91
2023/01/30 10:58:42;;;;;;;13.48;2.60;;;;;;;5.63;100.00;100023.06;6314741;28;20119;-90
2023/01/30 11:02:07;;;;;;;6.53;1.83;;;;;;;5.65;100.00;100044.34;6231352;28;20547;-90
2023/01/30 11:05:20;;;;;;;13.30;2.80;;;;;;;5.42;100.00;100020.19;6218790;28;20061;-90
2023/01/30 11:08:23;;;;;;;13.18;3.28;;;;;;;5.29;100.00;100033.00;6235968;28;20048;-91
2023/01/30 11:11:30;;;;;;;12.32;1.95;;;;;;;5.15;100.00;100031.31;6234311;28;20415;-90
2023/01/30 11:14:57;;;;;;;9.45;2.35;;;;;;;5.23;100.00;100030.81;6236371;28;20041;-90
2023/01/30 11:18:04;;;;;;;14.20;2.22;;;;;;;5.50;100.00;100028.22;6239641;28;20529;-89
2023/01/30 11:21:30;;;;;;;14.43;2.13;;;;;;;5.76;100.00;100008.50;6230120;28;20046;-90
2023/01/30 11:24:44;;;;;;;12.45;2.05;;;;;;;5.64;100.00;100047.00;6235773;28;20507;-89
2023/01/30 11:27:54;;;;;;;10.98;1.95;;;;;;;5.59;100.00;100001.94;6218661;28;20041;-90
2023/01/30 11:30:59;;;;;;;7.47;1.88;;;;;;;5.63;100.00;100014.56;6235589;28;20050;-91
2023/01/30 11:34:05;;;;;;;12.18;2.55;;;;;;;5.72;100.00;100034.50;6235736;28;20045;-90
2023/01/30 11:37:22;;;;;;;9.18;1.77;;;;;;;5.89;100.00;99980.25;6251251;28;20040;-91
2023/01/30 11:40:29;;;;;;;10.82;2.13;;;;;;;6.15;100.00;100004.16;6303562;28;20122;-91
2023/01/30 11:43:38;;;;;;;11.30;2.45;;;;;;;5.94;100.00;99997.97;6298337;28;20040;-89
2023/01/30 11:46:42;;;;;;;11.32;2.30;;;;;;;5.86;100.00;99985.56;6299770;28;20047;-92
2023/01/30 11:49:47;;;;;;;12.32;2.70;;;;;;;5.78;100.00;99993.81;6302697;28;20044;-90
2023/01/30 11:53:31;;;;;;;10.25;2.10;;;;;;;5.34;100.00;99977.06;6297564;28;20462;-93
2023/01/30 11:56:46;;;;;;;18.77;4.63;;;;;;;5.04;100.00;99991.88;6284007;28;20470;-90
2023/01/30 11:59:56;;;;;;;14.68;2.42;;;;;;;4.73;100.00;100012.63;6296422;28;20040;-85
2023/01/30 12:03:05;;;;;;;11.98;3.20;;;;;;;4.51;100.00;100012.31;6300721;28;20063;-90
2023/01/30 12:06:08;;;;;;;11.18;2.20;;;;;;;4.25;100.00;100024.19;6303198;28;20516;-90
2023/01/30 12:09:49;;;;;;;13.52;2.83;;;;;;;4.07;100.00;99996.19;6302582;28;20127;-90
2023/01/30 12:12:55;;;;;;;;;;;;;;;4.01;100.00;100001.69;6219373;28;20507;-87
2023/01/30 12:16:04;;;;;;;12.80;2.50;;;;;;;3.89;100.00;100008.34;6221590;28;20071;-87
2023/01/30 12:19:20;;;;;;;12.38;2.83;;;;;;;3.87;100.00;100014.47;6202884;28;20563;-88
2023/01/30 12:22:34;;;;;;;15.75;2.45;;;;;;;3.86;100.00;100015.41;6217926;28;20050;-88
2023/01/30 12:25:57;;;;;;;11.10;2.13;;;;;;;3.88;100.00;100040.00;6226083;28;20046;-89
2023/01/30 12:29:14;;;;;;;10.20;2.28;;;;;;;3.87;100.00;100045.19;6216725;28;20038;-88
2023/01/30 12:32:20;;;;;;;8.30;1.85;;;;;;;3.84;100.00;100030.03;6215360;28;20042;-89
2023/01/30 12:35:33;;;;;;;13.90;2.22;;;;;;;3.78;100.00;100043.19;6216391;28;20086;-88
2023/01/30 12:39:10;;;;;;;9.00;2.13;;;;;;;3.85;100.00;100062.38;6213414;28;20072;-88
2023/01/30 12:42:46;;;;;;;6.70;2.00;;;;;;;3.78;100.00;100043.19;6239959;28;20041;-87
2023/01/30 12:46:02;;;;;;;10.95;1.92;;;;;;;3.65;100.00;100038.78;6309549;28;20052;-89
2023/01/30 12:49:31;;;;;;;11.70;3.13;;;;;;;3.41;100.00;100086.25;6311520;28;20392;-89
2023/01/30 12:52:52;;;;;;;7.88;1.73;;;;;;;3.17;100.00;100060.31;6293522;28;20044;-87
2023/01/30 12:56:16;;;;;;;;;;;;;;;3.07;100.00;100069.41;6301574;28;20040;-88
2023/01/30 13:00:12;;;;;;;3.80;1.10;;;;;;;3.01;100.00;100091.00;6308159;28;19935;-86
2023/01/30 13:03:20;;;;;;;2.30;0.98;;;;;;;3.01;100.00;100084.16;6222341;28;20049;-88
2023/01/30 13:06:54;;;;;;;4.35;0.90;;;;;;;3.10;100.00;100080.25;6215085;28;20060;-89
2023/01/30 13:10:19;;;;;;;9.82;1.52;;;;;;;3.26;100.00;100079.44;6230695;28;20471;-87
2023/01/30 13:13:34;;;;;;;5.35;1.33;;;;;;;3.44;100.00;100075.84;6230883;28;20481;-86
2023/01/30 13:17:05;;;;;;;8.07;1.70;;;;;;;3.53;100.00;100079.59;6200186;28;20050;-87
2023/01/30 13:20:22;;;;;;;3.67;1.42;;;;;;;3.48;100.00;100076.47;6227690;28;20183;-87
2023/01/30 13:24:01;;;;;;;6.22;1.50;;;;;;;3.57;100.00;100060.59;6228736;28;20637;-88
2023/01/30 13:27:08;;;;;;;9.18;2.25;;;;;;;3.70;100.00;100040.25;6224870;28;20042;-87
2023/01/30 13:30:17;;;;;;;8.60;1.77;;;;;;;3.76;100.00;100048.41;6213863;28;20060;-88
2023/01/30 13:33:24;;;;;;;12.00;2.17;;;;;;;3.92;100.00;100047.50;6211671;28;20090;-89
2023/01/30 13:36:38;;;;;;;12.60;2.28;;;;;;;4.09;100.00;100044.75;6249567;28;20453;-90
2023/01/30 13:40:01;;;;;;;12.27;1.95;;;;;;;4.37;100.00;100037.97;6307586;28;20051;-91
2023/01/30 13:43:27;;;;;;;11.32;1.85;;;;;;;4.66;100.00;100031.84;6295046;28;20111;-91
2023/01/30 13:46:31;;;;;;;9.50;1.90;;;;;;;4.81;100.00;100026.69;6301189;28;20040;-91
2023/01/30 13:49:48;;;;;;;12.55;2.05;;;;;;;4.86;100.00;100033.16;6297807;28;20097;-91
2023/01/30 13:53:03;;;;;;;6.63;1.52;;;;;;;5.01;100.00;100031.38;6301157;28;20248;-93
2023/01/30 13:56:27;;;;;;;13.52;1.70;;;;;;;5.04;100.00;100018.34;6295040;28;20051;-91
2023/01/30 14:00:13;;;;;;;7.30;1.42;;;;;;;5.12;100.00;100041.78;6300982;28;20485;-92
2023/01/30 14:03:31;;;;;;;7.45;1.60;;;;;;;5.18;100.00;100048.25;6306431;28;20067;-92
2023/01/30 14:06:38;;;;;;;3.92;1.20;;;;;;;5.14;100.00;100070.75;6308781;28;20080;-93
2023/01/30 14:09:47;;;;;;;6.80;1.17;;;;;;;5.04;100.00;100086.78;6305334;28;20119;-90
2023/01/30 14:12:52;;;;;;;7.43;1.25;;;;;;;4.93;100.00;100129.31;6312924;28;20489;-92
2023/01/30 14:16:06;;;;;;;8.40;1.33;;;;;;;4.84;100.00;100111.94;6306751;28;20044;-91
2023/01/30 14:19:42;;;;;;;4.72;1.10;;;;;;;4.84;100.00;100126.50;6309526;28;20109;-92
2023/01/30 14:22:53;;;;;;;5.25;1.23;;;;;;;4.83;100.00;100176.97;6315495;28;20048;-93
2023/01/30 14:25:56;;;;;;;6.82;1.52;;;;;;;4.81;100.00;100155.72;6303633;28;20357;-93
2023/01/30 14:28:58;;;;;;;6.43;1.45;;;;;;;4.84;100.00;100190.59;6295919;28;20083;-93
2023/01/30 14:32:00;;;;;;;7.43;1.55;;;;;;;4.87;100.00;100173.31;6305521;28;20032;-93
2023/01/30 14:35:01;;;;;;;7.40;1.70;;;;;;;4.81;100.00;100199.31;6309814;28;20045;-93
2023/01/30 14:38:16;;;;;;;9.27;1.60;;;;;;;4.77;100.00;100192.75;6305355;28;20056;-93
2023/01/30 14:41:27;;;;;;;11.02;2.55;;;;;;;4.75;100.00;100199.69;6299083;28;20047;-93